sensor_id;sensor_type;location;lat;lon;timestamp;temperature;humidity
56046;DHT22;41913;51.030;3.706;2023-04-01T00:00:54;18.60;84.80
56046;DHT22;41913;51.030;3.706;2023-04-01T00:03:22;18.60;84.90
56046;DHT22;41913;51.030;3.706;2023-04-01T00:05:48;18.60;84.90
56046;DHT22;41913;51.030;3.706;2023-04-01T00:08:14;18.60;85.40
56046;DHT22;41913;51.030;3.706;2023-04-01T00:10:40;18.60;84.90
56046;DHT22;41913;51.030;3.706;2023-04-01T00:13:06;18.60;84.90
56046;DHT22;41913;51.030;3.706;2023-04-01T00:15:32;18.60;84.90
56046;DHT22;41913;51.030;3.706;2023-04-01T00:17:58;18.60;84.90
56046;DHT22;41913;51.030;3.706;2023-04-01T00:20:24;18.60;84.90
56046;DHT22;41913;51.030;3.706;2023-04-01T00:22:50;18.60;84.90
56046;DHT22;41913;51.030;3.706;2023-04-01T00:25:16;18.60;84.90
56046;DHT22;41913;51.030;3.706;2023-04-01T00:27:42;18.60;84.90
56046;DHT22;41913;51.030;3.706;2023-04-01T00:30:09;18.60;84.90
56046;DHT22;41913;51.030;3.706;2023-04-01T00:32:35;18.60;84.90
56046;DHT22;41913;51.030;3.706;2023-04-01T00:35:01;18.60;84.90
56046;DHT22;41913;51.030;3.706;2023-04-01T00:37:28;18.50;84.80
56046;DHT22;41913;51.030;3.706;2023-04-01T00:39:54;18.50;84.80
56046;DHT22;41913;51.030;3.706;2023-04-01T00:42:20;18.50;84.80
56046;DHT22;41913;51.030;3.706;2023-04-01T00:44:50;18.50;84.90
56046;DHT22;41913;51.030;3.706;2023-04-01T00:47:17;18.50;84.90
56046;DHT22;41913;51.030;3.706;2023-04-01T00:49:46;18.50;84.90
56046;DHT22;41913;51.030;3.706;2023-04-01T00:52:21;18.50;84.90
56046;DHT22;41913;51.030;3.706;2023-04-01T00:54:50;18.50;84.90
56046;DHT22;41913;51.030;3.706;2023-04-01T00:57:38;18.50;84.80
56046;DHT22;41913;51.030;3.706;2023-04-01T01:00:06;18.50;84.90
56046;DHT22;41913;51.030;3.706;2023-04-01T01:02:35;18.50;84.80
56046;DHT22;41913;51.030;3.706;2023-04-01T01:05:00;18.50;84.90
56046;DHT22;41913;51.030;3.706;2023-04-01T01:07:52;18.50;84.90
56046;DHT22;41913;51.030;3.706;2023-04-01T01:10:33;18.50;84.90
56046;DHT22;41913;51.030;3.706;2023-04-01T01:21:33;18.50;84.90
56046;DHT22;41913;51.030;3.706;2023-04-01T01:24:41;18.50;84.90
56046;DHT22;41913;51.030;3.706;2023-04-01T01:27:16;18.50;84.90
56046;DHT22;41913;51.030;3.706;2023-04-01T01:37:55;18.50;84.90
56046;DHT22;41913;51.030;3.706;2023-04-01T01:40:22;18.50;84.90
56046;DHT22;41913;51.030;3.706;2023-04-01T01:42:50;18.40;84.80
56046;DHT22;41913;51.030;3.706;2023-04-01T01:45:20;18.40;84.90
56046;DHT22;41913;51.030;3.706;2023-04-01T01:47:48;18.40;84.90
56046;DHT22;41913;51.030;3.706;2023-04-01T01:50:15;18.40;84.80
56046;DHT22;41913;51.030;3.706;2023-04-01T01:52:42;18.40;84.80
56046;DHT22;41913;51.030;3.706;2023-04-01T01:55:35;18.40;84.90
56046;DHT22;41913;51.030;3.706;2023-04-01T02:00:39;18.40;84.80
56046;DHT22;41913;51.030;3.706;2023-04-01T02:03:06;18.40;84.90
56046;DHT22;41913;51.030;3.706;2023-04-01T02:05:32;18.40;84.80
56046;DHT22;41913;51.030;3.706;2023-04-01T02:08:12;18.40;84.80
56046;DHT22;41913;51.030;3.706;2023-04-01T02:10:42;18.40;84.80
56046;DHT22;41913;51.030;3.706;2023-04-01T02:16:08;18.40;84.80
56046;DHT22;41913;51.030;3.706;2023-04-01T02:18:36;18.40;84.90
56046;DHT22;41913;51.030;3.706;2023-04-01T02:21:05;18.40;85.40
56046;DHT22;41913;51.030;3.706;2023-04-01T02:23:33;18.40;84.90
56046;DHT22;41913;51.030;3.706;2023-04-01T02:26:01;18.40;84.90
56046;DHT22;41913;51.030;3.706;2023-04-01T02:28:28;18.40;84.90
56046;DHT22;41913;51.030;3.706;2023-04-01T02:30:55;18.40;84.90
56046;DHT22;41913;51.030;3.706;2023-04-01T02:33:23;18.40;84.90
56046;DHT22;41913;51.030;3.706;2023-04-01T02:35:50;18.40;84.90
56046;DHT22;41913;51.030;3.706;2023-04-01T02:38:15;18.40;84.90
56046;DHT22;41913;51.030;3.706;2023-04-01T02:40:47;18.40;84.90
56046;DHT22;41913;51.030;3.706;2023-04-01T02:43:14;18.40;84.90
56046;DHT22;41913;51.030;3.706;2023-04-01T02:45:42;18.30;84.90
56046;DHT22;41913;51.030;3.706;2023-04-01T02:48:07;18.40;84.90
56046;DHT22;41913;51.030;3.706;2023-04-01T02:50:34;18.40;84.90
56046;DHT22;41913;51.030;3.706;2023-04-01T02:53:01;18.40;84.90
56046;DHT22;41913;51.030;3.706;2023-04-01T02:55:29;18.30;84.90
56046;DHT22;41913;51.030;3.706;2023-04-01T02:57:56;18.30;84.90
56046;DHT22;41913;51.030;3.706;2023-04-01T03:00:21;18.30;84.90
56046;DHT22;41913;51.030;3.706;2023-04-01T03:02:47;18.30;84.90
56046;DHT22;41913;51.030;3.706;2023-04-01T03:05:13;18.30;84.90
56046;DHT22;41913;51.030;3.706;2023-04-01T03:07:39;18.40;84.90
56046;DHT22;41913;51.030;3.706;2023-04-01T03:10:06;18.30;84.90
56046;DHT22;41913;51.030;3.706;2023-04-01T03:12:32;18.40;84.90
56046;DHT22;41913;51.030;3.706;2023-04-01T03:14:57;18.30;84.90
56046;DHT22;41913;51.030;3.706;2023-04-01T03:17:23;18.40;85.00
56046;DHT22;41913;51.030;3.706;2023-04-01T03:19:49;18.30;84.90
56046;DHT22;41913;51.030;3.706;2023-04-01T03:22:14;18.40;85.00
56046;DHT22;41913;51.030;3.706;2023-04-01T03:24:40;18.30;84.90
56046;DHT22;41913;51.030;3.706;2023-04-01T03:27:06;18.30;84.90
56046;DHT22;41913;51.030;3.706;2023-04-01T03:29:31;18.30;84.90
56046;DHT22;41913;51.030;3.706;2023-04-01T03:32:04;18.30;84.90
56046;DHT22;41913;51.030;3.706;2023-04-01T03:34:30;18.30;85.50
56046;DHT22;41913;51.030;3.706;2023-04-01T03:36:56;18.30;84.90
56046;DHT22;41913;51.030;3.706;2023-04-01T03:39:22;18.30;84.90
56046;DHT22;41913;51.030;3.706;2023-04-01T03:41:48;18.30;84.90
56046;DHT22;41913;51.030;3.706;2023-04-01T03:44:14;18.30;84.90
56046;DHT22;41913;51.030;3.706;2023-04-01T03:46:40;18.30;84.90
56046;DHT22;41913;51.030;3.706;2023-04-01T03:49:10;18.30;84.90
56046;DHT22;41913;51.030;3.706;2023-04-01T03:51:43;18.30;84.90
56046;DHT22;41913;51.030;3.706;2023-04-01T03:54:09;18.30;84.90
56046;DHT22;41913;51.030;3.706;2023-04-01T03:56:35;18.30;85.00
56046;DHT22;41913;51.030;3.706;2023-04-01T03:59:03;18.30;85.00
56046;DHT22;41913;51.030;3.706;2023-04-01T04:01:29;18.30;85.00
56046;DHT22;41913;51.030;3.706;2023-04-01T04:03:56;18.30;85.00
56046;DHT22;41913;51.030;3.706;2023-04-01T04:06:23;18.30;85.00
56046;DHT22;41913;51.030;3.706;2023-04-01T04:08:49;18.30;85.00
56046;DHT22;41913;51.030;3.706;2023-04-01T04:11:16;18.30;85.00
56046;DHT22;41913;51.030;3.706;2023-04-01T04:13:42;18.20;84.90
56046;DHT22;41913;51.030;3.706;2023-04-01T04:16:09;18.30;85.00
56046;DHT22;41913;51.030;3.706;2023-04-01T04:18:36;18.30;85.00
56046;DHT22;41913;51.030;3.706;2023-04-01T04:21:02;18.20;84.90
56046;DHT22;41913;51.030;3.706;2023-04-01T04:23:28;18.30;85.00
56046;DHT22;41913;51.030;3.706;2023-04-01T04:26:06;18.20;84.90
56046;DHT22;41913;51.030;3.706;2023-04-01T04:28:33;18.30;85.00
56046;DHT22;41913;51.030;3.706;2023-04-01T04:30:59;18.20;84.90
56046;DHT22;41913;51.030;3.706;2023-04-01T04:33:25;18.20;84.90
56046;DHT22;41913;51.030;3.706;2023-04-01T04:35:54;18.20;85.00
56046;DHT22;41913;51.030;3.706;2023-04-01T04:38:20;18.20;84.90
56046;DHT22;41913;51.030;3.706;2023-04-01T04:40:45;18.20;84.90
56046;DHT22;41913;51.030;3.706;2023-04-01T04:43:12;18.20;85.00
56046;DHT22;41913;51.030;3.706;2023-04-01T04:45:38;18.20;85.50
56046;DHT22;41913;51.030;3.706;2023-04-01T04:48:15;18.20;84.90
56046;DHT22;41913;51.030;3.706;2023-04-01T04:50:47;18.20;84.90
56046;DHT22;41913;51.030;3.706;2023-04-01T04:53:16;18.20;84.90
56046;DHT22;41913;51.030;3.706;2023-04-01T04:55:47;18.20;84.90
56046;DHT22;41913;51.030;3.706;2023-04-01T04:58:13;18.20;84.90
56046;DHT22;41913;51.030;3.706;2023-04-01T05:00:39;18.20;84.90
56046;DHT22;41913;51.030;3.706;2023-04-01T05:03:05;18.20;85.00
56046;DHT22;41913;51.030;3.706;2023-04-01T05:05:30;18.20;85.00
56046;DHT22;41913;51.030;3.706;2023-04-01T05:07:56;18.20;85.00
56046;DHT22;41913;51.030;3.706;2023-04-01T05:10:22;18.20;85.00
56046;DHT22;41913;51.030;3.706;2023-04-01T05:12:47;18.20;85.00
56046;DHT22;41913;51.030;3.706;2023-04-01T05:15:13;18.20;85.00
56046;DHT22;41913;51.030;3.706;2023-04-01T05:17:40;18.20;85.00
56046;DHT22;41913;51.030;3.706;2023-04-01T05:20:06;18.20;85.00
56046;DHT22;41913;51.030;3.706;2023-04-01T05:22:32;18.20;85.00
56046;DHT22;41913;51.030;3.706;2023-04-01T05:24:58;18.20;85.00
56046;DHT22;41913;51.030;3.706;2023-04-01T05:27:23;18.20;85.00
56046;DHT22;41913;51.030;3.706;2023-04-01T05:29:49;18.20;85.00
56046;DHT22;41913;51.030;3.706;2023-04-01T05:32:15;18.20;85.00
56046;DHT22;41913;51.030;3.706;2023-04-01T05:34:41;18.20;85.00
56046;DHT22;41913;51.030;3.706;2023-04-01T05:37:06;18.20;85.00
56046;DHT22;41913;51.030;3.706;2023-04-01T05:39:37;18.20;85.00
56046;DHT22;41913;51.030;3.706;2023-04-01T05:42:05;18.20;85.00
56046;DHT22;41913;51.030;3.706;2023-04-01T05:44:31;18.20;85.00
56046;DHT22;41913;51.030;3.706;2023-04-01T05:46:56;18.20;85.00
56046;DHT22;41913;51.030;3.706;2023-04-01T05:49:22;18.20;85.00
56046;DHT22;41913;51.030;3.706;2023-04-01T05:51:48;18.10;84.90
56046;DHT22;41913;51.030;3.706;2023-04-01T05:54:13;18.10;84.90
56046;DHT22;41913;51.030;3.706;2023-04-01T05:56:39;18.20;85.00
56046;DHT22;41913;51.030;3.706;2023-04-01T05:59:05;18.10;84.90
56046;DHT22;41913;51.030;3.706;2023-04-01T06:01:31;18.10;84.90
56046;DHT22;41913;51.030;3.706;2023-04-01T06:03:57;18.20;85.00
56046;DHT22;41913;51.030;3.706;2023-04-01T06:06:27;18.20;85.00
56046;DHT22;41913;51.030;3.706;2023-04-01T06:08:56;18.10;84.90
56046;DHT22;41913;51.030;3.706;2023-04-01T06:11:37;18.20;85.00
56046;DHT22;41913;51.030;3.706;2023-04-01T06:30:30;18.10;85.00
56046;DHT22;41913;51.030;3.706;2023-04-01T06:33:09;18.10;84.90
56046;DHT22;41913;51.030;3.706;2023-04-01T06:35:54;18.10;85.00
56046;DHT22;41913;51.030;3.706;2023-04-01T06:38:47;18.10;84.90
56046;DHT22;41913;51.030;3.706;2023-04-01T06:47:13;18.10;85.00
56046;DHT22;41913;51.030;3.706;2023-04-01T06:50:21;18.00;85.00
56046;DHT22;41913;51.030;3.706;2023-04-01T06:53:08;18.10;85.00
56046;DHT22;41913;51.030;3.706;2023-04-01T06:55:46;18.00;85.00
56046;DHT22;41913;51.030;3.706;2023-04-01T06:58:20;18.00;85.00
56046;DHT22;41913;51.030;3.706;2023-04-01T07:00:51;18.00;85.00
56046;DHT22;41913;51.030;3.706;2023-04-01T07:05:59;18.00;85.00
56046;DHT22;41913;51.030;3.706;2023-04-01T07:08:27;18.10;85.00
56046;DHT22;41913;51.030;3.706;2023-04-01T07:11:01;18.00;84.90
56046;DHT22;41913;51.030;3.706;2023-04-01T07:13:45;18.00;85.00
56046;DHT22;41913;51.030;3.706;2023-04-01T07:16:21;18.10;85.00
56046;DHT22;41913;51.030;3.706;2023-04-01T07:19:11;18.00;85.00
56046;DHT22;41913;51.030;3.706;2023-04-01T07:21:49;18.00;84.90
56046;DHT22;41913;51.030;3.706;2023-04-01T07:26:55;18.10;85.00
56046;DHT22;41913;51.030;3.706;2023-04-01T07:29:21;18.10;85.00
56046;DHT22;41913;51.030;3.706;2023-04-01T07:32:15;18.20;85.10
56046;DHT22;41913;51.030;3.706;2023-04-01T07:48:33;18.60;87.70
56046;DHT22;41913;51.030;3.706;2023-04-01T07:51:21;18.80;88.60
56046;DHT22;41913;51.030;3.706;2023-04-01T07:59:17;18.90;88.40
56046;DHT22;41913;51.030;3.706;2023-04-01T08:01:52;18.90;88.60
56046;DHT22;41913;51.030;3.706;2023-04-01T08:14:51;19.30;90.50
56046;DHT22;41913;51.030;3.706;2023-04-01T08:22:42;19.30;90.80
56046;DHT22;41913;51.030;3.706;2023-04-01T08:25:17;19.30;90.90
56046;DHT22;41913;51.030;3.706;2023-04-01T08:27:48;19.30;91.20
56046;DHT22;41913;51.030;3.706;2023-04-01T08:30:31;19.30;91.00
56046;DHT22;41913;51.030;3.706;2023-04-01T08:33:15;19.30;90.90
56046;DHT22;41913;51.030;3.706;2023-04-01T08:35:49;19.30;90.60
56046;DHT22;41913;51.030;3.706;2023-04-01T08:40:53;19.00;90.40
56046;DHT22;41913;51.030;3.706;2023-04-01T08:43:49;18.90;90.30
56046;DHT22;41913;51.030;3.706;2023-04-01T08:54:55;18.80;90.30
56046;DHT22;41913;51.030;3.706;2023-04-01T09:08:31;18.80;90.40
56046;DHT22;41913;51.030;3.706;2023-04-01T09:19:51;18.80;90.30
56046;DHT22;41913;51.030;3.706;2023-04-01T09:25:26;18.80;90.30
56046;DHT22;41913;51.030;3.706;2023-04-01T09:31:17;18.80;90.20
56046;DHT22;41913;51.030;3.706;2023-04-01T09:37:19;18.90;90.20
56046;DHT22;41913;51.030;3.706;2023-04-01T09:42:49;18.90;90.20
56046;DHT22;41913;51.030;3.706;2023-04-01T10:23:31;19.40;88.80
56046;DHT22;41913;51.030;3.706;2023-04-01T10:31:47;19.50;88.30
56046;DHT22;41913;51.030;3.706;2023-04-01T10:37:30;19.50;88.10
56046;DHT22;41913;51.030;3.706;2023-04-01T10:43:23;19.50;87.70
56046;DHT22;41913;51.030;3.706;2023-04-01T10:55:16;19.30;87.00
56046;DHT22;41913;51.030;3.706;2023-04-01T11:11:40;19.10;86.60
56046;DHT22;41913;51.030;3.706;2023-04-01T11:14:25;19.10;86.60
56046;DHT22;41913;51.030;3.706;2023-04-01T11:20:11;19.00;86.40
56046;DHT22;41913;51.030;3.706;2023-04-01T11:22:48;19.00;86.40
56046;DHT22;41913;51.030;3.706;2023-04-01T11:25:45;19.00;86.40
56046;DHT22;41913;51.030;3.706;2023-04-01T11:34:02;18.90;86.50
56046;DHT22;41913;51.030;3.706;2023-04-01T11:39:26;18.90;86.60
56046;DHT22;41913;51.030;3.706;2023-04-01T11:45:19;18.90;86.60
56046;DHT22;41913;51.030;3.706;2023-04-01T11:51:07;18.80;86.70
56046;DHT22;41913;51.030;3.706;2023-04-01T11:54:17;18.80;86.70
56046;DHT22;41913;51.030;3.706;2023-04-01T12:02:03;18.80;86.90
56046;DHT22;41913;51.030;3.706;2023-04-01T12:04:55;18.80;86.80
56046;DHT22;41913;51.030;3.706;2023-04-01T12:12:53;18.70;86.90
56046;DHT22;41913;51.030;3.706;2023-04-01T12:18:50;18.70;86.90
56046;DHT22;41913;51.030;3.706;2023-04-01T12:21:21;18.70;87.00
56046;DHT22;41913;51.030;3.706;2023-04-01T12:26:26;18.70;87.00
56046;DHT22;41913;51.030;3.706;2023-04-01T12:32:40;18.70;87.00
56046;DHT22;41913;51.030;3.706;2023-04-01T12:35:18;18.70;87.10
56046;DHT22;41913;51.030;3.706;2023-04-01T12:37:48;18.70;87.10
56046;DHT22;41913;51.030;3.706;2023-04-01T12:40:20;18.70;87.10
56046;DHT22;41913;51.030;3.706;2023-04-01T12:42:55;18.70;87.20
56046;DHT22;41913;51.030;3.706;2023-04-01T13:02:11;18.60;87.20
56046;DHT22;41913;51.030;3.706;2023-04-01T13:15:51;18.60;87.20
56046;DHT22;41913;51.030;3.706;2023-04-01T13:24:25;18.60;87.30
56046;DHT22;41913;51.030;3.706;2023-04-01T13:32:36;18.60;87.40
56046;DHT22;41913;51.030;3.706;2023-04-01T13:35:26;18.50;87.60
56046;DHT22;41913;51.030;3.706;2023-04-01T13:38:05;18.60;87.50
56046;DHT22;41913;51.030;3.706;2023-04-01T13:40:58;18.60;87.50
56046;DHT22;41913;51.030;3.706;2023-04-01T13:43:36;18.50;87.40
56046;DHT22;41913;51.030;3.706;2023-04-01T13:56:47;18.50;87.50
56046;DHT22;41913;51.030;3.706;2023-04-01T14:07:32;18.50;87.60
56046;DHT22;41913;51.030;3.706;2023-04-01T14:10:33;18.50;87.60
56046;DHT22;41913;51.030;3.706;2023-04-01T14:13:04;18.50;87.50
56046;DHT22;41913;51.030;3.706;2023-04-01T14:15:51;18.50;87.50
56046;DHT22;41913;51.030;3.706;2023-04-01T14:21:48;18.50;87.40
56046;DHT22;41913;51.030;3.706;2023-04-01T14:30:31;18.40;87.50
56046;DHT22;41913;51.030;3.706;2023-04-01T14:33:12;18.40;87.50
56046;DHT22;41913;51.030;3.706;2023-04-01T14:46:27;18.40;87.50
56046;DHT22;41913;51.030;3.706;2023-04-01T14:49:01;18.40;87.50
56046;DHT22;41913;51.030;3.706;2023-04-01T14:56:47;18.40;87.50
56046;DHT22;41913;51.030;3.706;2023-04-01T14:59:33;18.30;87.40
56046;DHT22;41913;51.030;3.706;2023-04-01T15:07:59;18.30;87.40
56046;DHT22;41913;51.030;3.706;2023-04-01T15:13:48;18.40;87.40
56046;DHT22;41913;51.030;3.706;2023-04-01T15:16:34;18.30;87.30
56046;DHT22;41913;51.030;3.706;2023-04-01T15:19:42;18.30;87.40
56046;DHT22;41913;51.030;3.706;2023-04-01T15:22:35;18.30;87.30
56046;DHT22;41913;51.030;3.706;2023-04-01T15:39:21;18.30;87.30
56046;DHT22;41913;51.030;3.706;2023-04-01T15:53:18;18.30;87.30
56046;DHT22;41913;51.030;3.706;2023-04-01T15:55:50;18.20;87.20
56046;DHT22;41913;51.030;3.706;2023-04-01T16:01:35;18.20;87.20
56046;DHT22;41913;51.030;3.706;2023-04-01T16:15:37;18.20;87.30
56046;DHT22;41913;51.030;3.706;2023-04-01T16:21:10;18.20;87.30
56046;DHT22;41913;51.030;3.706;2023-04-01T16:23:43;18.20;87.30
56046;DHT22;41913;51.030;3.706;2023-04-01T16:29:19;18.20;87.30
56046;DHT22;41913;51.030;3.706;2023-04-01T16:34:36;18.20;87.30
56046;DHT22;41913;51.030;3.706;2023-04-01T16:48:09;18.20;87.30
56046;DHT22;41913;51.030;3.706;2023-04-01T16:50:58;18.20;87.30
56046;DHT22;41913;51.030;3.706;2023-04-01T16:53:49;18.20;87.30
56046;DHT22;41913;51.030;3.706;2023-04-01T16:56:22;18.20;87.40
56046;DHT22;41913;51.030;3.706;2023-04-01T16:58:59;18.20;87.40
56046;DHT22;41913;51.030;3.706;2023-04-01T17:01:39;18.20;87.40
56046;DHT22;41913;51.030;3.706;2023-04-01T17:04:31;18.20;87.40
56046;DHT22;41913;51.030;3.706;2023-04-01T17:44:32;18.20;87.80
56046;DHT22;41913;51.030;3.706;2023-04-01T17:53:23;18.20;87.80
56046;DHT22;41913;51.030;3.706;2023-04-01T18:10:16;18.20;87.70
56046;DHT22;41913;51.030;3.706;2023-04-01T18:18:31;18.20;87.70
56046;DHT22;41913;51.030;3.706;2023-04-01T18:24:29;18.20;87.60
56046;DHT22;41913;51.030;3.706;2023-04-01T18:27:16;18.20;87.60
56046;DHT22;41913;51.030;3.706;2023-04-01T18:29:53;18.20;87.60
56046;DHT22;41913;51.030;3.706;2023-04-01T18:32:41;18.20;87.70
56046;DHT22;41913;51.030;3.706;2023-04-01T18:38:27;18.20;87.90
56046;DHT22;41913;51.030;3.706;2023-04-01T18:47:45;18.40;88.60
56046;DHT22;41913;51.030;3.706;2023-04-01T18:50:30;18.50;88.70
56046;DHT22;41913;51.030;3.706;2023-04-01T18:53:24;18.60;88.90
56046;DHT22;41913;51.030;3.706;2023-04-01T18:56:03;18.60;88.80
56046;DHT22;41913;51.030;3.706;2023-04-01T19:05:32;18.60;88.90
56046;DHT22;41913;51.030;3.706;2023-04-01T19:16:04;18.50;89.20
56046;DHT22;41913;51.030;3.706;2023-04-01T19:21:35;18.50;89.30
56046;DHT22;41913;51.030;3.706;2023-04-01T19:27:15;18.50;89.30
56046;DHT22;41913;51.030;3.706;2023-04-01T19:35:36;18.40;89.40
56046;DHT22;41913;51.030;3.706;2023-04-01T19:54:44;18.30;89.60
56046;DHT22;41913;51.030;3.706;2023-04-01T19:57:17;18.40;89.60
56046;DHT22;41913;51.030;3.706;2023-04-01T20:00:09;18.40;89.60
56046;DHT22;41913;51.030;3.706;2023-04-01T20:05:51;18.40;89.60
56046;DHT22;41913;51.030;3.706;2023-04-01T20:08:37;18.40;89.60
56046;DHT22;41913;51.030;3.706;2023-04-01T20:16:09;18.40;89.80
56046;DHT22;41913;51.030;3.706;2023-04-01T20:18:40;18.40;89.70
56046;DHT22;41913;51.030;3.706;2023-04-01T20:26:26;18.30;89.90
56046;DHT22;41913;51.030;3.706;2023-04-01T20:29:27;18.30;89.80
56046;DHT22;41913;51.030;3.706;2023-04-01T20:36:20;18.30;89.90
56046;DHT22;41913;51.030;3.706;2023-04-01T20:41:31;18.30;90.00
56046;DHT22;41913;51.030;3.706;2023-04-01T20:44:13;18.30;90.00
56046;DHT22;41913;51.030;3.706;2023-04-01T20:46:53;18.30;90.00
56046;DHT22;41913;51.030;3.706;2023-04-01T20:52:25;18.30;90.10
56046;DHT22;41913;51.030;3.706;2023-04-01T20:55:26;18.30;90.00
56046;DHT22;41913;51.030;3.706;2023-04-01T21:01:13;18.30;90.00
56046;DHT22;41913;51.030;3.706;2023-04-01T21:03:49;18.30;90.00
56046;DHT22;41913;51.030;3.706;2023-04-01T21:39:23;18.30;90.00
56046;DHT22;41913;51.030;3.706;2023-04-01T21:42:19;18.30;90.00
56046;DHT22;41913;51.030;3.706;2023-04-01T21:53:09;18.30;90.00
56046;DHT22;41913;51.030;3.706;2023-04-01T21:59:33;18.30;90.10
56046;DHT22;41913;51.030;3.706;2023-04-01T22:07:25;18.30;89.70
56046;DHT22;41913;51.030;3.706;2023-04-01T22:10:03;18.20;90.00
56046;DHT22;41913;51.030;3.706;2023-04-01T22:12:47;18.20;90.00
56046;DHT22;41913;51.030;3.706;2023-04-01T22:15:25;18.20;90.00
56046;DHT22;41913;51.030;3.706;2023-04-01T22:18:05;18.20;90.00
56046;DHT22;41913;51.030;3.706;2023-04-01T22:29:22;18.20;90.00
56046;DHT22;41913;51.030;3.706;2023-04-01T22:32:11;18.20;90.00
56046;DHT22;41913;51.030;3.706;2023-04-01T22:34:55;18.20;90.00
56046;DHT22;41913;51.030;3.706;2023-04-01T22:43:36;18.20;90.00
56046;DHT22;41913;51.030;3.706;2023-04-01T22:46:22;18.20;90.00
56046;DHT22;41913;51.030;3.706;2023-04-01T22:49:07;18.20;90.00
56046;DHT22;41913;51.030;3.706;2023-04-01T22:56:53;18.20;90.10
56046;DHT22;41913;51.030;3.706;2023-04-01T22:59:51;18.10;90.00
56046;DHT22;41913;51.030;3.706;2023-04-01T23:02:30;18.10;90.00
56046;DHT22;41913;51.030;3.706;2023-04-01T23:05:01;18.10;90.00
56046;DHT22;41913;51.030;3.706;2023-04-01T23:07:45;18.10;90.00
56046;DHT22;41913;51.030;3.706;2023-04-01T23:10:40;18.10;90.00
56046;DHT22;41913;51.030;3.706;2023-04-01T23:13:18;18.10;90.00
56046;DHT22;41913;51.030;3.706;2023-04-01T23:15:47;18.10;90.00
56046;DHT22;41913;51.030;3.706;2023-04-01T23:18:27;18.10;90.00
56046;DHT22;41913;51.030;3.706;2023-04-01T23:21:13;18.10;90.00
56046;DHT22;41913;51.030;3.706;2023-04-01T23:24:07;18.10;90.00
56046;DHT22;41913;51.030;3.706;2023-04-01T23:27:12;18.10;90.00
56046;DHT22;41913;51.030;3.706;2023-04-01T23:29:41;18.10;90.00
56046;DHT22;41913;51.030;3.706;2023-04-01T23:32:35;18.10;90.00
56046;DHT22;41913;51.030;3.706;2023-04-01T23:35:11;18.10;90.00
56046;DHT22;41913;51.030;3.706;2023-04-01T23:37:42;18.10;90.00
56046;DHT22;41913;51.030;3.706;2023-04-01T23:40:12;18.10;90.00
56046;DHT22;41913;51.030;3.706;2023-04-01T23:42:41;18.00;90.00
56046;DHT22;41913;51.030;3.706;2023-04-01T23:45:14;18.10;90.00
56046;DHT22;41913;51.030;3.706;2023-04-01T23:47:43;18.00;90.00
56046;DHT22;41913;51.030;3.706;2023-04-01T23:50:23;18.10;90.00
56046;DHT22;41913;51.030;3.706;2023-04-01T23:53:04;18.00;90.00
56046;DHT22;41913;51.030;3.706;2023-04-01T23:55:40;18.00;90.00
